Time;durP1;ratioP1;P1;durP2;ratioP2;P2;SDS_P1;SDS_P2;PMS_P1;PMS_P2;Temp;Humidity;BMP_temperature;BMP_pressure;BME280_temperature;BME280_humidity;BME280_pressure;Samples;Min_cycle;Max_cycle;Signal;HPM_P1;HPM_P2
2023/05/31 00:00:18;;;;;;;0.20;0.20;;;10.70;99.90;;;;;;4842098;29;20129;-76
2023/05/31 00:02:44;;;;;;;0.10;0.10;;;10.70;99.90;;;;;;4838965;29;20042;-76
2023/05/31 00:05:09;;;;;;;0.20;0.20;;;10.70;99.90;;;;;;4823209;29;20046;-76
2023/05/31 00:07:35;;;;;;;0.10;0.10;;;10.60;99.90;;;;;;4823125;29;20056;-76
2023/05/31 00:10:01;;;;;;;0.10;0.10;;;10.70;99.90;;;;;;4843490;29;20204;-76
2023/05/31 00:12:26;;;;;;;0.17;0.17;;;10.60;99.90;;;;;;4839720;29;20049;-76
2023/05/31 00:14:52;;;;;;;0.10;0.10;;;10.70;99.90;;;;;;4822940;29;20624;-76
2023/05/31 00:17:18;;;;;;;0.20;0.20;;;10.60;99.90;;;;;;4839138;29;20069;-76
2023/05/31 00:19:44;;;;;;;0.10;0.10;;;10.60;99.90;;;;;;4822218;29;20153;-76
2023/05/31 00:22:10;;;;;;;0.20;0.20;;;10.60;99.90;;;;;;4840148;29;20057;-76
2023/05/31 00:24:36;;;;;;;0.10;0.10;;;10.60;99.90;;;;;;4839328;29;20058;-76
2023/05/31 00:27:02;;;;;;;0.15;0.15;;;10.50;99.90;;;;;;4840330;29;20110;-76
2023/05/31 00:29:28;;;;;;;0.20;0.20;;;10.50;99.90;;;;;;4824476;29;20454;-76
2023/05/31 00:31:54;;;;;;;0.10;0.10;;;10.50;99.90;;;;;;4839336;29;20042;-76
2023/05/31 00:34:20;;;;;;;0.10;0.10;;;10.50;99.90;;;;;;4839530;29;20080;-76
2023/05/31 00:36:45;;;;;;;0.10;0.10;;;10.50;99.90;;;;;;4823131;29;20498;-75
2023/05/31 00:39:11;;;;;;;0.20;0.20;;;10.70;99.90;;;;;;4838370;29;20130;-75
2023/05/31 00:41:37;;;;;;;0.15;0.15;;;10.50;99.90;;;;;;4838500;29;20459;-75
2023/05/31 00:44:02;;;;;;;0.10;0.10;;;10.50;99.90;;;;;;4832548;29;20061;-75
2023/05/31 00:46:31;;;;;;;0.20;0.20;;;10.50;99.90;;;;;;4818492;29;20049;-75
2023/05/31 00:48:57;;;;;;;0.20;0.20;;;10.40;99.90;;;;;;4837765;29;20402;-75
2023/05/31 00:51:27;;;;;;;0.10;0.10;;;10.40;99.90;;;;;;4819067;29;20458;-75
2023/05/31 00:53:53;;;;;;;0.20;0.20;;;10.30;99.90;;;;;;4840669;29;20045;-75
2023/05/31 00:56:21;;;;;;;0.10;0.10;;;10.30;99.90;;;;;;4839724;29;20038;-75
2023/05/31 00:58:48;;;;;;;0.10;0.10;;;10.30;99.90;;;;;;4823300;29;20061;-75
2023/05/31 01:01:15;;;;;;;0.20;0.20;;;10.20;99.90;;;;;;4836985;29;20124;-75
2023/05/31 01:03:41;;;;;;;0.10;0.10;;;10.20;99.90;;;;;;4816779;29;20054;-75
2023/05/31 01:06:08;;;;;;;0.10;0.10;;;10.20;99.90;;;;;;4846414;29;20134;-75
2023/05/31 01:08:35;;;;;;;0.10;0.10;;;10.20;99.90;;;;;;4824176;29;20521;-75
2023/05/31 01:11:25;;;;;;;0.20;0.20;;;10.20;99.90;;;;;;4849752;29;20041;-75
2023/05/31 01:14:04;;;;;;;0.10;0.10;;;10.20;99.90;;;;;;4819140;29;20417;-75
2023/05/31 01:16:41;;;;;;;0.10;0.10;;;10.10;99.90;;;;;;4835224;29;20060;-75
2023/05/31 01:19:18;;;;;;;0.10;0.10;;;10.10;99.90;;;;;;4832603;29;20078;-75
2023/05/31 01:22:14;;;;;;;0.20;0.20;;;10.00;99.90;;;;;;4838757;29;20046;-75
2023/05/31 01:24:42;;;;;;;0.20;0.20;;;10.10;99.90;;;;;;4823454;29;20375;-75
2023/05/31 01:27:08;;;;;;;0.10;0.10;;;10.00;99.90;;;;;;4838999;29;20074;-75
2023/05/31 01:29:35;;;;;;;0.10;0.10;;;10.00;99.90;;;;;;4839530;29;20060;-75
2023/05/31 01:32:02;;;;;;;0.15;0.15;;;10.00;99.90;;;;;;4842821;29;20089;-76
2023/05/31 01:34:28;;;;;;;0.10;0.10;;;10.00;99.90;;;;;;4838221;29;20082;-75
2023/05/31 01:36:54;;;;;;;0.10;0.10;;;9.90;99.90;;;;;;4858224;29;20580;-75
2023/05/31 01:39:20;;;;;;;0.20;0.20;;;10.00;99.90;;;;;;4820793;29;20085;-76
2023/05/31 01:41:48;;;;;;;0.15;0.15;;;9.90;99.90;;;;;;4842291;29;20037;-75
2023/05/31 01:44:15;;;;;;;0.10;0.10;;;9.90;99.90;;;;;;4820029;29;20549;-75
2023/05/31 01:46:42;;;;;;;0.10;0.10;;;9.90;99.90;;;;;;4819467;29;20136;-75
2023/05/31 01:49:10;;;;;;;0.20;0.20;;;9.90;99.90;;;;;;4840452;29;20054;-75
2023/05/31 01:51:37;;;;;;;0.20;0.20;;;9.80;99.90;;;;;;4833587;29;20078;-75
2023/05/31 01:54:03;;;;;;;0.20;0.20;;;9.80;99.90;;;;;;4838158;29;20053;-76
2023/05/31 01:56:31;;;;;;;0.10;0.10;;;10.10;99.90;;;;;;4821014;29;20125;-75
2023/05/31 01:58:58;;;;;;;0.20;0.20;;;9.70;99.90;;;;;;4838538;29;20117;-76
2023/05/31 02:01:24;;;;;;;0.20;0.20;;;9.70;99.90;;;;;;4821798;29;20053;-75
2023/05/31 02:03:53;;;;;;;0.17;0.17;;;9.70;99.90;;;;;;4810993;29;20049;-75
2023/05/31 02:06:19;;;;;;;0.20;0.20;;;9.80;99.90;;;;;;4806425;29;20054;-75
2023/05/31 02:08:45;;;;;;;0.20;0.20;;;9.70;99.90;;;;;;4835717;29;20094;-75
2023/05/31 02:11:11;;;;;;;0.10;0.10;;;9.70;99.90;;;;;;4832570;29;20062;-75
2023/05/31 02:13:36;;;;;;;0.10;0.10;;;9.70;99.90;;;;;;4820226;29;20050;-75
2023/05/31 02:16:05;;;;;;;0.10;0.10;;;9.70;99.90;;;;;;4825097;29;20470;-75
2023/05/31 02:18:32;;;;;;;0.10;0.10;;;9.70;99.90;;;;;;4835847;29;20538;-75
2023/05/31 02:20:57;;;;;;;0.20;0.20;;;9.70;99.90;;;;;;4846934;29;20105;-75
2023/05/31 02:23:23;;;;;;;0.10;0.10;;;9.70;99.90;;;;;;4823432;29;20984;-75
2023/05/31 02:25:50;;;;;;;0.10;0.10;;;9.70;99.90;;;;;;4838076;29;20222;-75
2023/05/31 02:28:17;;;;;;;0.20;0.20;;;9.70;99.90;;;;;;4821186;29;20133;-76
2023/05/31 02:30:59;;;;;;;0.20;0.20;;;9.60;99.90;;;;;;4822900;29;20038;-75
2023/05/31 02:33:26;;;;;;;0.10;0.10;;;9.70;99.90;;;;;;4825910;29;20054;-75
2023/05/31 02:35:52;;;;;;;0.10;0.10;;;9.60;99.90;;;;;;4822515;29;20069;-75
2023/05/31 02:38:21;;;;;;;0.10;0.10;;;9.70;99.90;;;;;;4836499;29;20051;-75
2023/05/31 02:40:47;;;;;;;0.15;0.15;;;9.70;99.90;;;;;;4823600;29;20477;-75
2023/05/31 02:43:13;;;;;;;0.10;0.10;;;9.60;99.90;;;;;;4822307;29;20423;-74
2023/05/31 02:45:38;;;;;;;0.10;0.10;;;9.60;99.90;;;;;;4837466;29;20106;-75
2023/05/31 02:48:05;;;;;;;0.10;0.10;;;9.60;99.90;;;;;;4823894;29;20049;-75
2023/05/31 02:50:31;;;;;;;0.10;0.10;;;9.50;99.90;;;;;;4825458;29;20050;-75
2023/05/31 02:52:57;;;;;;;0.10;0.10;;;9.50;99.90;;;;;;4847843;29;20109;-74
2023/05/31 02:55:23;;;;;;;0.10;0.10;;;9.50;99.90;;;;;;4845893;29;20057;-74
2023/05/31 02:57:50;;;;;;;0.20;0.20;;;9.40;99.90;;;;;;4841913;29;20097;-74
2023/05/31 03:00:17;;;;;;;0.10;0.10;;;9.50;99.90;;;;;;4843992;29;20561;-74
2023/05/31 03:02:43;;;;;;;0.10;0.10;;;9.40;99.90;;;;;;4823538;29;20079;-74
2023/05/31 03:05:09;;;;;;;0.20;0.20;;;9.40;99.90;;;;;;4834196;29;20332;-75
2023/05/31 03:07:37;;;;;;;0.10;0.10;;;9.40;99.90;;;;;;4823626;29;20464;-76
2023/05/31 03:10:04;;;;;;;0.20;0.20;;;9.40;99.90;;;;;;4842633;29;20045;-74
2023/05/31 03:12:30;;;;;;;0.10;0.10;;;9.40;99.90;;;;;;4856760;29;20124;-75
2023/05/31 03:14:56;;;;;;;0.10;0.10;;;9.30;99.90;;;;;;4814906;29;20042;-74
2023/05/31 03:17:21;;;;;;;0.10;0.10;;;9.30;99.90;;;;;;4840224;29;20042;-74
2023/05/31 03:19:47;;;;;;;0.10;0.10;;;9.30;99.90;;;;;;4841432;29;20042;-74
2023/05/31 03:22:13;;;;;;;0.20;0.20;;;9.30;99.90;;;;;;4832680;29;20384;-74
2023/05/31 03:24:38;;;;;;;0.20;0.20;;;9.30;99.90;;;;;;4840673;29;20050;-75
2023/05/31 03:27:05;;;;;;;0.10;0.10;;;9.40;99.90;;;;;;4824747;29;20057;-75
2023/05/31 03:29:31;;;;;;;0.20;0.20;;;9.40;99.90;;;;;;4840734;29;20050;-75
2023/05/31 03:31:57;;;;;;;0.10;0.10;;;9.50;99.90;;;;;;4848978;29;20093;-75
2023/05/31 03:34:22;;;;;;;0.20;0.20;;;9.40;99.90;;;;;;4837955;29;20140;-74
2023/05/31 03:36:48;;;;;;;0.10;0.10;;;9.40;99.90;;;;;;4827156;29;20091;-75
2023/05/31 03:39:14;;;;;;;0.20;0.20;;;9.40;99.90;;;;;;4822488;29;20119;-75
2023/05/31 03:41:40;;;;;;;0.20;0.20;;;9.40;99.90;;;;;;4842313;29;20634;-75
2023/05/31 03:44:05;;;;;;;0.20;0.20;;;9.40;99.90;;;;;;4824546;29;20053;-75
2023/05/31 03:46:31;;;;;;;0.10;0.10;;;9.40;99.90;;;;;;4837944;29;20504;-75
2023/05/31 03:48:57;;;;;;;0.20;0.20;;;9.50;99.90;;;;;;4838087;29;20049;-75
2023/05/31 03:51:23;;;;;;;0.10;0.10;;;9.50;99.90;;;;;;4842168;29;20057;-75
2023/05/31 03:53:49;;;;;;;0.10;0.10;;;9.50;99.90;;;;;;4845167;29;20094;-75
2023/05/31 03:56:15;;;;;;;0.17;0.17;;;9.50;99.90;;;;;;4824515;29;20079;-75
2023/05/31 03:58:41;;;;;;;0.10;0.10;;;9.50;99.90;;;;;;4841918;29;20050;-75
2023/05/31 04:01:06;;;;;;;0.10;0.10;;;9.50;99.90;;;;;;4842366;29;20455;-75
2023/05/31 04:03:32;;;;;;;0.15;0.15;;;9.60;99.90;;;;;;4822140;29;20053;-75
2023/05/31 04:05:58;;;;;;;0.17;0.17;;;9.60;99.90;;;;;;4832474;29;20399;-75
2023/05/31 04:08:23;;;;;;;0.20;0.20;;;9.60;99.90;;;;;;4823707;29;20058;-75
2023/05/31 04:10:49;;;;;;;0.10;0.10;;;9.60;99.90;;;;;;4816649;29;20042;-75
2023/05/31 04:13:15;;;;;;;0.20;0.20;;;9.70;99.90;;;;;;4843807;29;20054;-75
2023/05/31 04:15:40;;;;;;;0.10;0.10;;;9.70;99.90;;;;;;4824354;29;20049;-75
2023/05/31 04:18:06;;;;;;;0.20;0.20;;;9.70;99.90;;;;;;4820562;29;20102;-75
2023/05/31 04:20:32;;;;;;;0.17;0.17;;;9.80;99.90;;;;;;4809725;29;20325;-75
2023/05/31 04:22:57;;;;;;;0.20;0.20;;;9.80;99.90;;;;;;4843818;29;20050;-75
2023/05/31 04:25:23;;;;;;;0.20;0.20;;;9.90;99.90;;;;;;4822682;29;20658;-75
2023/05/31 04:27:49;;;;;;;0.20;0.20;;;10.00;99.90;;;;;;4823105;29;20081;-75
2023/05/31 04:30:15;;;;;;;0.10;0.10;;;10.00;99.90;;;;;;4839269;29;20042;-75
2023/05/31 04:32:40;;;;;;;0.10;0.10;;;10.00;99.90;;;;;;4837395;29;20089;-75
2023/05/31 04:35:08;;;;;;;0.17;0.17;;;10.10;99.90;;;;;;4839748;29;20054;-75
2023/05/31 04:37:34;;;;;;;0.10;0.10;;;10.10;99.90;;;;;;4821296;29;20471;-75
2023/05/31 04:40:00;;;;;;;0.10;0.10;;;10.20;99.90;;;;;;4842618;29;20053;-76
2023/05/31 04:42:29;;;;;;;0.20;0.20;;;10.20;99.90;;;;;;4843022;29;20038;-75
2023/05/31 04:44:58;;;;;;;0.20;0.20;;;10.20;99.90;;;;;;4823085;29;20046;-76
2023/05/31 04:47:33;;;;;;;0.10;0.10;;;10.30;99.90;;;;;;4835540;29;20046;-75
2023/05/31 04:50:00;;;;;;;0.10;0.10;;;10.30;99.90;;;;;;4821321;29;20046;-75
2023/05/31 04:52:31;;;;;;;0.20;0.20;;;10.30;99.90;;;;;;4840879;29;20467;-76
2023/05/31 04:55:00;;;;;;;0.10;0.10;;;10.40;99.90;;;;;;4843887;29;20070;-75
2023/05/31 04:57:28;;;;;;;0.17;0.17;;;10.50;99.90;;;;;;4823248;29;20149;-75
2023/05/31 04:59:56;;;;;;;0.20;0.20;;;10.50;99.90;;;;;;4808284;29;20087;-75
2023/05/31 05:02:22;;;;;;;0.10;0.10;;;10.60;99.90;;;;;;4815093;29;20129;-75
2023/05/31 05:04:48;;;;;;;0.10;0.10;;;10.60;99.90;;;;;;4827712;29;20494;-75
2023/05/31 05:07:14;;;;;;;0.20;0.20;;;10.70;99.90;;;;;;4843519;29;20050;-75
2023/05/31 05:09:40;;;;;;;0.10;0.10;;;10.70;99.90;;;;;;4823175;29;20052;-75
2023/05/31 05:12:07;;;;;;;0.10;0.10;;;10.90;99.90;;;;;;4845887;29;20076;-74
2023/05/31 05:14:33;;;;;;;0.20;0.20;;;10.90;99.90;;;;;;4821653;29;20081;-74
2023/05/31 05:16:59;;;;;;;0.10;0.10;;;10.90;99.90;;;;;;4838790;29;20365;-75
2023/05/31 05:19:24;;;;;;;0.13;0.13;;;11.00;99.90;;;;;;4821020;29;20059;-75
2023/05/31 05:21:50;;;;;;;0.20;0.20;;;11.00;99.90;;;;;;4823554;29;20056;-75
2023/05/31 05:24:16;;;;;;;0.20;0.20;;;11.10;99.90;;;;;;4825579;29;20061;-75
2023/05/31 05:26:42;;;;;;;0.10;0.10;;;11.20;99.90;;;;;;4822001;29;20062;-75
2023/05/31 05:29:07;;;;;;;0.20;0.20;;;11.20;99.90;;;;;;4838194;29;20038;-75
2023/05/31 05:31:33;;;;;;;0.10;0.10;;;11.30;99.90;;;;;;4837998;29;20048;-75
2023/05/31 05:33:59;;;;;;;0.10;0.10;;;11.40;99.90;;;;;;4820226;29;20491;-75
2023/05/31 05:36:25;;;;;;;0.13;0.13;;;11.40;99.90;;;;;;4822410;29;20347;-77
2023/05/31 05:38:50;;;;;;;0.10;0.10;;;11.50;99.90;;;;;;4822365;29;20783;-75
2023/05/31 05:41:16;;;;;;;0.10;0.10;;;11.60;99.90;;;;;;4819308;29;20050;-75
2023/05/31 05:43:42;;;;;;;0.10;0.10;;;11.70;99.90;;;;;;4850236;29;20056;-75
2023/05/31 05:46:08;;;;;;;0.10;0.10;;;11.70;99.90;;;;;;4823532;29;20398;-76
2023/05/31 05:48:34;;;;;;;0.20;0.20;;;11.80;99.90;;;;;;4816450;29;20053;-75
2023/05/31 05:51:00;;;;;;;0.10;0.10;;;11.90;99.90;;;;;;4821158;29;20053;-75
2023/05/31 05:53:26;;;;;;;0.20;0.20;;;11.90;99.90;;;;;;4840265;29;20472;-75
2023/05/31 05:55:53;;;;;;;0.10;0.10;;;12.00;99.90;;;;;;4833816;29;20041;-75
2023/05/31 05:58:19;;;;;;;0.20;0.20;;;12.10;99.90;;;;;;4831743;29;20057;-75
2023/05/31 06:00:48;;;;;;;0.10;0.10;;;12.20;99.90;;;;;;4837495;29;20102;-75
2023/05/31 06:03:17;;;;;;;0.10;0.10;;;12.20;99.90;;;;;;4815535;29;20061;-75
2023/05/31 06:05:43;;;;;;;0.17;0.17;;;12.30;99.90;;;;;;4819792;29;20049;-74
2023/05/31 06:08:12;;;;;;;0.20;0.20;;;12.40;99.90;;;;;;4823081;29;20120;-75
2023/05/31 06:10:40;;;;;;;0.10;0.10;;;12.50;99.90;;;;;;4822904;29;20053;-75
2023/05/31 06:13:06;;;;;;;0.20;0.20;;;12.50;99.90;;;;;;4831863;29;20057;-76
2023/05/31 06:15:32;;;;;;;0.10;0.10;;;12.60;99.90;;;;;;4849324;29;20045;-75
2023/05/31 06:17:58;;;;;;;0.20;0.20;;;12.70;99.90;;;;;;4829628;29;20084;-75
2023/05/31 06:20:24;;;;;;;0.20;0.20;;;12.80;99.90;;;;;;4823394;29;20077;-75
2023/05/31 06:22:51;;;;;;;0.20;0.20;;;12.80;99.90;;;;;;4823498;29;20585;-75
2023/05/31 06:25:17;;;;;;;0.10;0.10;;;12.90;99.90;;;;;;4822392;29;20050;-74
2023/05/31 06:27:45;;;;;;;0.10;0.10;;;13.00;99.90;;;;;;4822647;29;20049;-75
2023/05/31 06:30:12;;;;;;;0.15;0.15;;;13.00;99.90;;;;;;4821494;29;20521;-75
2023/05/31 06:32:37;;;;;;;0.20;0.20;;;13.10;99.90;;;;;;4824758;29;20499;-75
2023/05/31 06:35:04;;;;;;;0.10;0.10;;;13.10;99.90;;;;;;4841554;29;20049;-75
2023/05/31 06:37:31;;;;;;;0.10;0.10;;;13.20;99.90;;;;;;4840217;29;20046;-75
2023/05/31 06:39:57;;;;;;;0.10;0.10;;;13.30;99.90;;;;;;4853385;29;20069;-75
2023/05/31 06:42:23;;;;;;;0.20;0.20;;;13.30;99.90;;;;;;4838725;29;20050;-75
2023/05/31 06:44:49;;;;;;;0.10;0.10;;;13.40;99.90;;;;;;4819425;29;20052;-75
2023/05/31 06:47:14;;;;;;;0.13;0.13;;;13.50;99.90;;;;;;4813345;29;20265;-76
2023/05/31 06:49:42;;;;;;;0.13;0.13;;;13.60;99.90;;;;;;4819677;29;20129;-76
2023/05/31 06:52:08;;;;;;;0.10;0.10;;;13.60;99.90;;;;;;4818573;29;20061;-76
2023/05/31 06:54:36;;;;;;;0.20;0.20;;;13.70;99.90;;;;;;4824174;29;20060;-77
2023/05/31 06:57:02;;;;;;;0.15;0.15;;;13.70;99.90;;;;;;4817967;29;20553;-76
2023/05/31 06:59:28;;;;;;;0.15;0.15;;;13.80;99.90;;;;;;4836257;29;20046;-77
2023/05/31 07:01:54;;;;;;;0.20;0.20;;;13.90;99.90;;;;;;4821798;29;20053;-76
2023/05/31 07:04:20;;;;;;;0.10;0.10;;;14.00;99.90;;;;;;4819246;29;20061;-78
2023/05/31 07:06:46;;;;;;;0.20;0.20;;;14.00;99.90;;;;;;4819431;29;20505;-77
2023/05/31 07:09:12;;;;;;;0.10;0.10;;;14.10;99.90;;;;;;4818700;29;20148;-78
2023/05/31 07:11:41;;;;;;;0.17;0.17;;;14.20;99.90;;;;;;4822588;29;20052;-78
2023/05/31 07:14:07;;;;;;;0.10;0.10;;;14.20;99.90;;;;;;4820530;29;20125;-77
2023/05/31 07:16:33;;;;;;;0.20;0.20;;;14.30;99.90;;;;;;4815694;29;20137;-77
2023/05/31 07:18:59;;;;;;;0.10;0.10;;;14.30;99.90;;;;;;4831747;29;20095;-77
2023/05/31 07:21:25;;;;;;;0.10;0.10;;;14.40;99.90;;;;;;4819331;29;20424;-77
2023/05/31 07:23:50;;;;;;;0.20;0.20;;;14.40;99.90;;;;;;4819379;29;20066;-76
2023/05/31 07:26:16;;;;;;;0.20;0.20;;;14.50;99.90;;;;;;4817731;29;20081;-77
2023/05/31 07:28:45;;;;;;;0.20;0.20;;;14.50;99.90;;;;;;4814328;29;20054;-77
2023/05/31 07:31:13;;;;;;;0.10;0.10;;;14.60;99.90;;;;;;4830716;29;20088;-75
2023/05/31 07:33:38;;;;;;;0.13;0.13;;;14.70;99.90;;;;;;4814085;29;20061;-75
2023/05/31 07:36:04;;;;;;;0.13;0.13;;;14.70;99.90;;;;;;4820760;29;20088;-76
2023/05/31 07:38:30;;;;;;;0.20;0.20;;;14.80;99.90;;;;;;4837542;29;20395;-77
2023/05/31 07:40:56;;;;;;;0.10;0.10;;;14.80;99.90;;;;;;4834970;29;20040;-76
2023/05/31 07:43:23;;;;;;;0.20;0.20;;;14.90;99.90;;;;;;4842636;29;20042;-76
2023/05/31 07:45:50;;;;;;;0.10;0.10;;;14.90;99.90;;;;;;4841515;29;20053;-77
2023/05/31 07:48:19;;;;;;;0.13;0.13;;;15.00;99.90;;;;;;4837946;29;20064;-76
2023/05/31 07:50:45;;;;;;;0.17;0.17;;;15.10;99.90;;;;;;4828341;29;20348;-76
2023/05/31 07:53:10;;;;;;;0.13;0.13;;;15.10;99.90;;;;;;4838868;29;20146;-76
2023/05/31 07:55:37;;;;;;;0.17;0.17;;;15.20;99.90;;;;;;4822827;29;20160;-76
2023/05/31 07:58:03;;;;;;;0.10;0.10;;;15.20;99.90;;;;;;4840217;29;20054;-76
2023/05/31 08:00:28;;;;;;;0.10;0.10;;;15.20;99.90;;;;;;4821607;29;20050;-76
2023/05/31 08:02:54;;;;;;;0.10;0.10;;;15.30;99.90;;;;;;4819728;29;20064;-77
2023/05/31 08:05:20;;;;;;;0.10;0.10;;;15.30;99.90;;;;;;4838814;29;20483;-76
2023/05/31 08:07:48;;;;;;;0.10;0.10;;;15.40;99.90;;;;;;4822608;29;20041;-77
2023/05/31 08:10:16;;;;;;;0.10;0.10;;;15.40;99.90;;;;;;4836574;29;20041;-76
2023/05/31 08:12:41;;;;;;;0.10;0.10;;;15.40;99.90;;;;;;4820183;29;20369;-77
2023/05/31 08:15:08;;;;;;;0.15;0.15;;;15.50;99.90;;;;;;4838687;29;20072;-76
2023/05/31 08:17:34;;;;;;;0.10;0.10;;;15.50;99.90;;;;;;4828043;29;20461;-77
2023/05/31 08:20:00;;;;;;;0.20;0.20;;;15.60;99.90;;;;;;4807797;29;20145;-77
2023/05/31 08:22:26;;;;;;;0.20;0.20;;;15.60;99.90;;;;;;4812690;29;20165;-77
2023/05/31 08:24:51;;;;;;;0.20;0.20;;;15.70;99.90;;;;;;4833295;29;20494;-77
2023/05/31 08:27:17;;;;;;;0.10;0.10;;;15.80;99.90;;;;;;4808457;29;20046;-76
2023/05/31 08:29:43;;;;;;;0.10;0.10;;;15.80;99.90;;;;;;4831748;29;20213;-77
2023/05/31 08:32:09;;;;;;;0.20;0.20;;;15.90;99.90;;;;;;4820566;29;20045;-76
2023/05/31 08:34:35;;;;;;;0.10;0.10;;;15.90;99.90;;;;;;4838218;29;20438;-76
2023/05/31 08:37:01;;;;;;;0.10;0.10;;;16.00;99.90;;;;;;4840340;29;20054;-77
2023/05/31 08:39:27;;;;;;;0.17;0.17;;;16.00;99.90;;;;;;4840059;29;20054;-77
2023/05/31 08:42:01;;;;;;;0.20;0.20;;;16.10;99.90;;;;;;4840450;29;20046;-77
2023/05/31 08:44:28;;;;;;;1.02;0.30;;;16.10;99.90;;;;;;4837967;29;20451;-77
2023/05/31 08:47:17;;;;;;;0.10;0.10;;;16.20;99.90;;;;;;4823989;29;20077;-76
2023/05/31 08:49:45;;;;;;;0.10;0.10;;;16.30;99.90;;;;;;4822723;29;20046;-76
2023/05/31 08:52:11;;;;;;;0.20;0.20;;;16.40;99.90;;;;;;4835965;29;20049;-76
2023/05/31 08:54:37;;;;;;;0.10;0.10;;;16.40;99.90;;;;;;4828392;29;20451;-76
2023/05/31 08:57:03;;;;;;;0.20;0.20;;;16.50;99.90;;;;;;4834009;29;20050;-76
2023/05/31 08:59:30;;;;;;;0.13;0.13;;;16.50;99.90;;;;;;4821596;29;20508;-76
2023/05/31 09:01:57;;;;;;;0.10;0.10;;;16.60;99.90;;;;;;4828717;29;20050;-76
2023/05/31 09:04:25;;;;;;;0.20;0.20;;;16.70;99.90;;;;;;4838604;29;20046;-76
2023/05/31 09:06:51;;;;;;;0.10;0.10;;;16.80;99.90;;;;;;4837084;29;20061;-76
2023/05/31 09:09:18;;;;;;;0.15;0.15;;;16.80;99.90;;;;;;4834455;29;20542;-77
2023/05/31 09:11:45;;;;;;;0.20;0.20;;;16.80;99.90;;;;;;4823401;29;20057;-77
2023/05/31 09:14:11;;;;;;;0.15;0.15;;;16.90;99.90;;;;;;4821565;29;20117;-77
2023/05/31 09:16:37;;;;;;;0.20;0.20;;;16.90;99.90;;;;;;4820542;29;20483;-77
2023/05/31 09:19:05;;;;;;;0.15;0.15;;;16.90;99.90;;;;;;4835437;29;20073;-78
2023/05/31 09:21:39;;;;;;;0.10;0.10;;;17.00;99.90;;;;;;4834795;29;20124;-77
2023/05/31 09:24:05;;;;;;;0.20;0.20;;;17.00;99.90;;;;;;4808911;29;20071;-77
2023/05/31 09:26:32;;;;;;;0.10;0.10;;;17.10;99.90;;;;;;4815107;29;20043;-77
2023/05/31 09:28:58;;;;;;;0.20;0.20;;;17.10;99.90;;;;;;4820195;29;20398;-77
2023/05/31 09:31:25;;;;;;;0.10;0.10;;;17.10;99.90;;;;;;4828473;29;20057;-78
2023/05/31 09:33:51;;;;;;;0.20;0.20;;;17.10;99.90;;;;;;4816118;29;20050;-77
2023/05/31 09:36:30;;;;;;;0.30;0.20;;;17.10;99.90;;;;;;4835846;29;20118;-77
2023/05/31 09:39:04;;;;;;;0.10;0.10;;;17.10;99.90;;;;;;4808092;29;20494;-77
2023/05/31 09:41:31;;;;;;;0.20;0.20;;;17.00;99.90;;;;;;4835444;29;20502;-77
2023/05/31 09:43:57;;;;;;;0.10;0.10;;;16.90;99.90;;;;;;4817647;29;20046;-77
2023/05/31 09:46:24;;;;;;;0.20;0.20;;;16.80;99.90;;;;;;4820501;29;20384;-76
2023/05/31 09:49:01;;;;;;;0.20;0.20;;;16.80;99.90;;;;;;4834331;29;20045;-77
2023/05/31 09:51:27;;;;;;;0.10;0.10;;;16.80;99.90;;;;;;4838166;29;20117;-76
2023/05/31 09:53:55;;;;;;;0.20;0.20;;;16.90;99.90;;;;;;4821123;29;20146;-77
2023/05/31 09:56:23;;;;;;;0.10;0.10;;;16.70;99.90;;;;;;4815165;29;20501;-77
2023/05/31 09:58:50;;;;;;;0.20;0.20;;;16.70;99.90;;;;;;4821885;29;20053;-77
2023/05/31 10:01:16;;;;;;;0.10;0.10;;;16.60;99.90;;;;;;4840306;29;20085;-76
2023/05/31 10:03:43;;;;;;;0.10;0.10;;;16.60;99.90;;;;;;4840279;29;20050;-76
2023/05/31 10:06:11;;;;;;;0.10;0.10;;;16.60;99.90;;;;;;4829382;29;20049;-77
2023/05/31 10:08:37;;;;;;;0.20;0.20;;;16.60;99.90;;;;;;4819179;29;20061;-76
2023/05/31 10:11:04;;;;;;;0.10;0.10;;;16.60;99.90;;;;;;4832380;29;20046;-77
2023/05/31 10:13:31;;;;;;;0.20;0.20;;;16.50;99.90;;;;;;4821254;29;20452;-78
2023/05/31 10:16:07;;;;;;;0.13;0.13;;;16.60;99.90;;;;;;4821826;29;20046;-77
2023/05/31 10:18:36;;;;;;;0.10;0.10;;;16.60;99.90;;;;;;4816017;29;20064;-77
2023/05/31 10:21:12;;;;;;;0.20;0.20;;;16.60;99.90;;;;;;4821000;29;20058;-78
2023/05/31 10:23:49;;;;;;;0.15;0.15;;;16.60;99.90;;;;;;4818823;29;20077;-77
2023/05/31 10:26:19;;;;;;;0.20;0.20;;;16.60;99.90;;;;;;4826477;29;20050;-75
2023/05/31 10:29:10;;;;;;;0.20;0.20;;;16.60;99.90;;;;;;4812009;29;20538;-76
2023/05/31 10:31:43;;;;;;;0.10;0.10;;;16.60;99.90;;;;;;4815471;29;20058;-76
2023/05/31 10:34:18;;;;;;;0.15;0.15;;;16.70;99.90;;;;;;4817722;29;20110;-76
2023/05/31 10:36:45;;;;;;;0.17;0.17;;;16.70;99.90;;;;;;4818739;29;20046;-76
2023/05/31 10:39:22;;;;;;;0.20;0.20;;;16.70;99.90;;;;;;4820568;29;20053;-76
2023/05/31 10:41:55;;;;;;;0.20;0.20;;;16.70;99.90;;;;;;4829290;29;20126;-78
2023/05/31 10:44:31;;;;;;;0.20;0.20;;;16.70;99.90;;;;;;4833813;29;20054;-76
2023/05/31 10:47:01;;;;;;;0.10;0.10;;;16.70;99.90;;;;;;4819209;29;20068;-76
2023/05/31 10:49:30;;;;;;;0.20;0.20;;;16.80;99.90;;;;;;4836086;29;20060;-76
2023/05/31 10:52:04;;;;;;;0.10;0.10;;;16.80;99.90;;;;;;4833337;29;20529;-78
2023/05/31 10:54:32;;;;;;;0.10;0.10;;;16.90;99.90;;;;;;4835065;29;20066;-77
2023/05/31 10:56:59;;;;;;;0.10;0.10;;;16.90;99.90;;;;;;4818770;29;20049;-76
2023/05/31 10:59:27;;;;;;;0.10;0.10;;;17.00;99.90;;;;;;4836729;29;20065;-77
2023/05/31 11:01:54;;;;;;;0.10;0.10;;;17.00;99.90;;;;;;4838534;29;20607;-77
2023/05/31 11:04:27;;;;;;;0.20;0.20;;;17.00;99.90;;;;;;4820918;29;20105;-76
2023/05/31 11:06:54;;;;;;;0.20;0.20;;;17.10;99.90;;;;;;4807974;29;20050;-77
2023/05/31 11:09:21;;;;;;;0.20;0.20;;;17.20;99.90;;;;;;4807673;29;20058;-76
2023/05/31 11:11:50;;;;;;;0.10;0.10;;;17.20;99.90;;;;;;4814700;29;20372;-77
2023/05/31 11:14:16;;;;;;;0.13;0.13;;;17.30;99.90;;;;;;4823574;29;20077;-77
2023/05/31 11:16:47;;;;;;;0.17;0.15;;;17.30;99.90;;;;;;4821947;29;20085;-78
2023/05/31 11:19:17;;;;;;;0.20;0.20;;;17.40;99.90;;;;;;4819253;29;20083;-78
2023/05/31 11:22:09;;;;;;;0.13;0.13;;;17.50;99.90;;;;;;4824241;29;20050;-76
2023/05/31 11:24:52;;;;;;;;;;;17.50;99.90;;;;;;4842979;29;20050;-77
2023/05/31 11:27:23;;;;;;;0.20;0.20;;;17.60;99.90;;;;;;4822448;29;19924;-77
2023/05/31 11:29:52;;;;;;;0.10;0.10;;;17.70;99.90;;;;;;4827608;29;20038;-78
2023/05/31 11:32:33;;;;;;;0.20;0.20;;;17.70;99.90;;;;;;4823782;29;20090;-77
2023/05/31 11:35:04;;;;;;;0.20;0.20;;;17.80;99.90;;;;;;4841183;29;20073;-82
2023/05/31 11:37:31;;;;;;;0.10;0.10;;;17.90;99.90;;;;;;4821418;29;20102;-81
2023/05/31 11:40:01;;;;;;;0.20;0.20;;;17.90;99.90;;;;;;4840896;29;20129;-80
2023/05/31 11:42:30;;;;;;;0.10;0.10;;;17.90;99.90;;;;;;4843225;29;20150;-76
2023/05/31 11:44:57;;;;;;;0.20;0.20;;;18.00;99.90;;;;;;4841960;29;20050;-76
2023/05/31 11:47:26;;;;;;;0.17;0.17;;;18.10;99.90;;;;;;4821903;29;20862;-85
2023/05/31 11:49:52;;;;;;;0.17;0.17;;;18.10;99.90;;;;;;4839555;29;20151;-77
2023/05/31 11:52:21;;;;;;;0.13;0.13;;;18.20;99.90;;;;;;4823267;29;20069;-77
2023/05/31 11:54:48;;;;;;;0.20;0.20;;;18.20;99.90;;;;;;4822915;29;20474;-76
2023/05/31 11:57:19;;;;;;;0.20;0.20;;;18.30;99.90;;;;;;4838145;29;20061;-77
2023/05/31 11:59:45;;;;;;;0.20;0.20;;;18.30;99.90;;;;;;4818222;29;20042;-75
2023/05/31 12:02:12;;;;;;;0.13;0.13;;;18.30;99.90;;;;;;4838407;29;20070;-75
2023/05/31 12:04:42;;;;;;;0.20;0.20;;;18.30;99.90;;;;;;4834847;29;20582;-75
2023/05/31 12:07:11;;;;;;;0.20;0.20;;;18.30;99.90;;;;;;4823878;29;20414;-75
2023/05/31 12:09:37;;;;;;;0.10;0.10;;;18.40;99.90;;;;;;4834074;29;20053;-75
2023/05/31 12:12:05;;;;;;;0.10;0.10;;;18.40;99.90;;;;;;4819888;29;20046;-75
2023/05/31 12:14:32;;;;;;;0.10;0.10;;;18.40;99.90;;;;;;4822220;29;20087;-75
2023/05/31 12:17:04;;;;;;;0.10;0.10;;;18.50;99.90;;;;;;4836088;29;20054;-75
2023/05/31 12:19:30;;;;;;;0.20;0.20;;;18.60;99.90;;;;;;4819989;29;20088;-75
2023/05/31 12:21:57;;;;;;;0.20;0.20;;;18.70;99.90;;;;;;4824150;29;20171;-75
2023/05/31 12:24:22;;;;;;;0.20;0.20;;;18.70;99.90;;;;;;4838643;29;20058;-75
2023/05/31 12:26:48;;;;;;;0.13;0.13;;;18.80;99.90;;;;;;4837158;29;20397;-76
2023/05/31 12:29:18;;;;;;;0.20;0.20;;;18.90;99.90;;;;;;4830790;29;20056;-75
2023/05/31 12:31:45;;;;;;;0.20;0.20;;;19.00;99.90;;;;;;4822586;29;20764;-76
2023/05/31 12:34:12;;;;;;;0.20;0.20;;;19.00;99.90;;;;;;4851850;29;20153;-75
2023/05/31 12:36:41;;;;;;;0.20;0.20;;;19.10;99.90;;;;;;4842323;29;20149;-75
2023/05/31 12:39:09;;;;;;;0.25;0.25;;;19.10;99.90;;;;;;4846735;29;20082;-76
2023/05/31 12:41:35;;;;;;;0.20;0.20;;;19.20;99.90;;;;;;4824323;29;20096;-76
2023/05/31 12:44:00;;;;;;;0.10;0.10;;;19.20;99.90;;;;;;4836119;29;20521;-76
2023/05/31 12:46:26;;;;;;;0.20;0.20;;;19.30;99.90;;;;;;4822785;29;20164;-76
2023/05/31 12:48:52;;;;;;;0.20;0.20;;;19.30;99.90;;;;;;4844036;29;20388;-75
2023/05/31 12:51:22;;;;;;;0.10;0.10;;;19.30;99.90;;;;;;4858604;29;20045;-74